createdAt,value
2022-11-16T00:02:19.874Z,84.60
2022-11-16T00:04:46.486Z,84.42
2022-11-16T00:07:13.295Z,84.24
2022-11-16T00:09:39.869Z,84.17
2022-11-16T00:12:09.149Z,84.23
2022-11-16T00:14:36.694Z,83.98
2022-11-16T00:17:04.154Z,83.85
2022-11-16T00:19:31.605Z,83.99
2022-11-16T00:21:58.366Z,83.70
2022-11-16T00:24:25.017Z,83.46
2022-11-16T00:26:54.447Z,83.56
2022-11-16T00:29:25.888Z,83.61
2022-11-16T00:31:53.320Z,83.69
2022-11-16T00:34:21.981Z,83.64
2022-11-16T00:36:49.044Z,83.42
2022-11-16T00:39:16.974Z,83.54
2022-11-16T00:41:46.248Z,83.47
2022-11-16T00:44:13.338Z,83.36
2022-11-16T00:46:40.395Z,83.37
2022-11-16T00:49:07.857Z,83.34
2022-11-16T00:51:35.246Z,83.27
2022-11-16T00:54:03.396Z,83.14
2022-11-16T00:56:31.263Z,83.01
2022-11-16T00:58:58.054Z,82.98
2022-11-16T01:01:25.076Z,83.01
2022-11-16T01:03:51.860Z,82.85
2022-11-16T01:06:19.875Z,82.79
2022-11-16T01:08:47.287Z,82.68
2022-11-16T01:11:34.591Z,82.56
2022-11-16T01:14:03.890Z,82.55
2022-11-16T01:16:31.243Z,82.38
2022-11-16T01:18:58.447Z,82.10
2022-11-16T01:21:25.679Z,82.28
2022-11-16T01:23:52.259Z,82.25
2022-11-16T01:26:19.054Z,82.11
2022-11-16T01:28:45.960Z,82.19
2022-11-16T01:31:13.255Z,82.22
2022-11-16T01:33:40.444Z,82.23
2022-11-16T01:36:16.985Z,82.15
2022-11-16T01:38:45.834Z,82.03
2022-11-16T01:41:22.638Z,82.09
2022-11-16T01:43:58.853Z,82.16
2022-11-16T01:46:31.064Z,82.35
2022-11-16T01:49:04.866Z,82.18
2022-11-16T01:51:33.319Z,81.95
2022-11-16T01:54:03.976Z,82.03
2022-11-16T01:56:32.848Z,82.08
2022-11-16T01:59:20.916Z,82.15
2022-11-16T02:01:49.064Z,82.04
2022-11-16T02:04:17.353Z,81.79
2022-11-16T02:07:25.842Z,81.86
2022-11-16T02:10:18.496Z,81.64
2022-11-16T02:13:01.787Z,81.49
2022-11-16T02:15:41.787Z,81.43
2022-11-16T02:18:33.446Z,81.70
2022-11-16T02:21:11.770Z,81.67
2022-11-16T02:24:21.428Z,81.56
2022-11-16T02:27:14.928Z,81.20
2022-11-16T02:29:49.801Z,81.03
2022-11-16T02:32:24.757Z,80.89
2022-11-16T02:35:01.070Z,80.73
2022-11-16T02:37:33.904Z,80.80
2022-11-16T02:40:05.283Z,80.78
2022-11-16T02:42:48.607Z,80.82
2022-11-16T02:45:21.761Z,80.53
2022-11-16T02:47:51.181Z,80.42
2022-11-16T02:50:22.739Z,80.53
2022-11-16T02:52:49.333Z,80.51
2022-11-16T02:55:16.117Z,80.20
2022-11-16T02:57:57.167Z,80.56
2022-11-16T03:00:34.098Z,80.43
2022-11-16T03:03:07.307Z,80.51
2022-11-16T03:05:53.075Z,80.17
2022-11-16T03:08:39.448Z,80.30
2022-11-16T03:11:28.039Z,79.99
2022-11-16T03:14:08.157Z,79.87
2022-11-16T03:16:39.205Z,80.10
2022-11-16T03:19:10.331Z,80.13
2022-11-16T03:21:46.983Z,80.05
2022-11-16T03:24:13.905Z,80.24
2022-11-16T03:27:06.331Z,80.22
2022-11-16T03:29:43.639Z,80.03
2022-11-16T03:32:20.690Z,79.94
2022-11-16T03:34:57.267Z,79.92
2022-11-16T03:37:25.796Z,80.02
2022-11-16T03:39:54.153Z,80.07
2022-11-16T03:42:25.482Z,80.14
2022-11-16T03:44:53.095Z,80.23
2022-11-16T03:47:20.006Z,80.12
2022-11-16T03:49:47.915Z,80.10
2022-11-16T03:52:16.864Z,79.62
2022-11-16T03:54:44.340Z,79.85
2022-11-16T03:57:15.223Z,79.80
2022-11-16T03:59:44.705Z,79.89
2022-11-16T04:02:11.642Z,79.93
2022-11-16T04:04:57.321Z,79.77
2022-11-16T04:07:42.995Z,79.69
2022-11-16T04:10:29.516Z,79.44
2022-11-16T04:13:16.183Z,79.54
2022-11-16T04:16:01.764Z,79.68
2022-11-16T04:18:47.107Z,79.73
2022-11-16T04:21:39.485Z,79.79
2022-11-16T04:24:16.490Z,79.72
2022-11-16T04:27:05.426Z,79.76
2022-11-16T04:29:33.114Z,79.85
2022-11-16T04:32:18.767Z,79.59
2022-11-16T04:35:04.518Z,79.50
2022-11-16T04:37:49.942Z,79.55
2022-11-16T04:40:25.732Z,79.65
2022-11-16T04:42:57.805Z,79.52
2022-11-16T04:45:44.340Z,79.64
2022-11-16T04:48:13.029Z,79.66
2022-11-16T04:50:40.881Z,79.61
2022-11-16T04:53:07.872Z,79.61
2022-11-16T04:55:39.985Z,79.39
2022-11-16T04:58:07.405Z,79.34
2022-11-16T05:00:33.998Z,79.40
2022-11-16T05:03:01.689Z,79.53
2022-11-16T05:05:28.937Z,79.41
2022-11-16T05:07:57.524Z,79.60
2022-11-16T05:10:27.396Z,79.45
2022-11-16T05:12:54.227Z,79.54
2022-11-16T05:15:20.990Z,79.69
2022-11-16T05:17:48.256Z,79.38
2022-11-16T05:20:36.527Z,79.46
2022-11-16T05:23:04.363Z,79.61
2022-11-16T05:25:36.612Z,79.53
2022-11-16T05:28:06.443Z,79.88
2022-11-16T05:30:34.974Z,80.05
2022-11-16T05:33:02.321Z,80.18
2022-11-16T05:35:30.553Z,80.03
2022-11-16T05:37:57.156Z,80.11
2022-11-16T05:40:23.747Z,80.22
2022-11-16T05:42:57.267Z,80.20
2022-11-16T05:45:24.448Z,80.30
2022-11-16T05:47:51.422Z,80.35
2022-11-16T05:50:18.284Z,80.55
2022-11-16T05:52:46.648Z,80.48
2022-11-16T05:55:13.290Z,80.79
2022-11-16T05:57:43.322Z,80.58
2022-11-16T06:00:11.197Z,80.72
2022-11-16T06:02:43.665Z,80.82
2022-11-16T06:08:21.486Z,81.05
2022-11-16T06:10:49.796Z,81.16
2022-11-16T06:13:16.494Z,81.14
2022-11-16T06:15:49.622Z,81.19
2022-11-16T06:18:17.533Z,81.28
2022-11-16T06:20:44.220Z,81.38
2022-11-16T06:23:10.812Z,81.23
2022-11-16T06:25:38.823Z,81.32
2022-11-16T06:28:08.170Z,81.22
2022-11-16T06:30:35.567Z,81.30
2022-11-16T06:33:02.578Z,81.56
2022-11-16T06:35:29.214Z,81.46
2022-11-16T06:37:57.452Z,81.53
2022-11-16T06:40:25.255Z,81.53
2022-11-16T06:42:51.992Z,81.37
2022-11-16T06:45:18.593Z,81.30
2022-11-16T06:47:49.428Z,81.57
2022-11-16T06:50:20.110Z,81.49
2022-11-16T06:52:48.291Z,81.43
2022-11-16T06:55:16.092Z,81.53
2022-11-16T06:57:42.852Z,81.39
2022-11-16T07:00:10.586Z,81.33
2022-11-16T07:02:38.660Z,81.58
2022-11-16T07:05:06.774Z,81.56
2022-11-16T07:07:33.665Z,81.37
2022-11-16T07:10:00.930Z,81.34
2022-11-16T07:12:27.580Z,81.43
2022-11-16T07:14:55.776Z,81.54
2022-11-16T07:17:23.836Z,81.32
2022-11-16T07:19:52.782Z,81.06
2022-11-16T07:22:23.181Z,80.94
2022-11-16T07:24:50.252Z,80.92
2022-11-16T07:27:17.594Z,80.77
2022-11-16T07:29:45.574Z,81.10
2022-11-16T07:32:23.821Z,80.87
2022-11-16T07:35:09.751Z,80.87
2022-11-16T07:37:37.681Z,80.82
2022-11-16T07:40:04.675Z,80.95
2022-11-16T07:42:31.227Z,80.60
2022-11-16T07:45:21.174Z,80.67
2022-11-16T07:47:53.687Z,80.81
2022-11-16T07:50:46.653Z,80.56
2022-11-16T07:53:14.411Z,80.68
2022-11-16T07:55:40.868Z,80.74
2022-11-16T07:58:08.742Z,80.72
2022-11-16T08:00:36.444Z,80.48
2022-11-16T08:03:08.045Z,80.42
2022-11-16T08:05:35.488Z,80.55
2022-11-16T08:08:01.962Z,80.67
2022-11-16T08:10:30.679Z,80.73
2022-11-16T08:12:58.016Z,80.77
2022-11-16T08:15:25.125Z,80.91
2022-11-16T08:17:51.921Z,81.14
2022-11-16T08:20:18.771Z,81.47
2022-11-16T08:22:46.966Z,81.46
2022-11-16T08:25:14.185Z,81.56
2022-11-16T08:27:42.560Z,81.56
2022-11-16T08:30:09.675Z,81.96
2022-11-16T08:32:36.355Z,81.91
2022-11-16T08:35:04.016Z,81.85
2022-11-16T08:40:36.622Z,82.22
2022-11-16T08:43:03.322Z,82.13
2022-11-16T08:45:30.007Z,82.19
2022-11-16T08:48:03.477Z,82.35
2022-11-16T08:50:44.248Z,82.35
2022-11-16T08:53:19.109Z,82.25
2022-11-16T08:55:45.704Z,82.24
2022-11-16T08:58:12.315Z,82.28
2022-11-16T09:00:39.512Z,82.36
2022-11-16T09:03:06.101Z,82.52
2022-11-16T09:05:32.622Z,82.65
2022-11-16T09:07:59.381Z,82.73
2022-11-16T09:10:25.975Z,82.78
2022-11-16T09:12:52.471Z,82.70
2022-11-16T09:15:20.306Z,82.73
2022-11-16T09:17:47.190Z,82.60
2022-11-16T09:20:14.188Z,82.79
2022-11-16T09:22:41.390Z,82.76
2022-11-16T09:25:09.369Z,82.81
2022-11-16T09:27:37.239Z,82.90
2022-11-16T09:30:04.725Z,82.91
2022-11-16T09:32:31.307Z,82.78
2022-11-16T09:34:57.777Z,82.69
2022-11-16T09:37:24.552Z,82.86
2022-11-16T09:39:51.663Z,82.94
2022-11-16T09:42:27.162Z,82.95
2022-11-16T09:45:24.152Z,82.90
2022-11-16T09:47:59.031Z,82.87
2022-11-16T09:50:51.337Z,82.83
2022-11-16T09:53:22.223Z,82.85
2022-11-16T09:55:53.103Z,82.80
2022-11-16T09:58:28.299Z,82.63
2022-11-16T10:01:16.124Z,82.57
2022-11-16T10:03:49.907Z,82.68
2022-11-16T10:06:23.318Z,82.57
2022-11-16T10:08:53.164Z,82.46
2022-11-16T10:11:36.277Z,82.78
2022-11-16T10:14:23.345Z,82.52
2022-11-16T10:17:06.871Z,82.39
2022-11-16T10:19:46.267Z,82.44
2022-11-16T10:22:21.863Z,82.31
2022-11-16T10:24:57.469Z,82.49
2022-11-16T10:27:47.909Z,82.22
2022-11-16T10:30:16.609Z,82.33
2022-11-16T10:32:48.950Z,82.04
2022-11-16T10:35:21.363Z,81.58
2022-11-16T10:37:52.709Z,81.33
2022-11-16T10:40:35.478Z,81.58
2022-11-16T10:43:18.520Z,81.59
2022-11-16T10:46:00.561Z,81.81
2022-11-16T10:48:40.691Z,82.00
2022-11-16T10:51:09.073Z,82.03
2022-11-16T10:53:39.260Z,81.97
2022-11-16T10:56:36.757Z,82.05
2022-11-16T10:59:06.249Z,82.05
2022-11-16T11:01:35.413Z,82.06
2022-11-16T11:04:24.063Z,82.06
2022-11-16T11:06:56.079Z,82.13
2022-11-16T11:09:28.998Z,82.26
2022-11-16T11:12:16.804Z,82.29
2022-11-16T11:15:11.555Z,82.46
2022-11-16T11:17:49.923Z,82.60
2022-11-16T11:20:16.600Z,82.53
2022-11-16T11:22:47.617Z,82.47
2022-11-16T11:25:33.243Z,82.29
2022-11-16T11:28:18.553Z,82.32
2022-11-16T11:31:00.105Z,81.87
2022-11-16T11:33:31.736Z,81.97
2022-11-16T11:36:18.249Z,82.00
2022-11-16T11:39:05.852Z,81.73
2022-11-16T11:41:44.466Z,81.88
2022-11-16T11:44:19.178Z,81.76
2022-11-16T11:47:55.609Z,81.65
2022-11-16T11:50:12.964Z,81.51
2022-11-16T11:52:46.958Z,81.76
2022-11-16T11:55:17.258Z,81.63
2022-11-16T11:57:47.152Z,81.63
2022-11-16T12:00:14.947Z,81.60
2022-11-16T12:02:57.002Z,81.37
2022-11-16T12:05:47.257Z,81.39
2022-11-16T12:08:43.499Z,81.03
2022-11-16T12:11:35.417Z,81.44
2022-11-16T12:14:05.072Z,81.11
2022-11-16T12:16:42.485Z,81.17
2022-11-16T12:19:21.014Z,80.93
2022-11-16T12:21:57.453Z,80.88
2022-11-16T12:24:41.971Z,80.92
2022-11-16T12:27:26.934Z,80.88
2022-11-16T12:30:07.778Z,80.67
2022-11-16T12:32:48.981Z,80.73
2022-11-16T12:35:42.238Z,80.52
2022-11-16T12:38:30.495Z,80.50
2022-11-16T12:41:31.549Z,80.11
2022-11-16T12:44:08.078Z,80.02
2022-11-16T12:46:52.179Z,80.33
2022-11-16T12:49:44.739Z,80.21
2022-11-16T12:52:30.257Z,80.28
2022-11-16T12:55:38.797Z,79.97
2022-11-16T12:58:33.784Z,79.48
2022-11-16T13:01:17.044Z,79.18
2022-11-16T13:03:54.938Z,79.19
2022-11-16T13:06:32.440Z,79.38
2022-11-16T13:09:16.239Z,79.51
2022-11-16T13:11:51.595Z,79.30
2022-11-16T13:14:33.578Z,79.42
2022-11-16T13:17:02.795Z,79.66
2022-11-16T13:19:29.924Z,79.81
2022-11-16T13:22:17.251Z,79.90
2022-11-16T13:24:58.147Z,80.07
2022-11-16T13:27:34.098Z,79.91
2022-11-16T13:30:21.813Z,80.01
2022-11-16T13:32:57.573Z,79.86
2022-11-16T13:35:24.921Z,79.86
2022-11-16T13:37:54.155Z,79.93
2022-11-16T13:40:25.559Z,79.83
2022-11-16T13:43:06.259Z,79.83
2022-11-16T13:45:38.194Z,79.84
2022-11-16T13:48:16.188Z,79.98
2022-11-16T13:50:58.203Z,80.07
2022-11-16T13:56:25.541Z,79.98
2022-11-16T13:58:57.698Z,80.15
2022-11-16T14:01:26.009Z,80.31
2022-11-16T14:04:31.490Z,80.27
2022-11-16T14:06:59.447Z,80.34
2022-11-16T14:09:47.293Z,80.14
2022-11-16T14:12:52.277Z,80.24
2022-11-16T14:15:22.016Z,80.38
2022-11-16T14:17:54.095Z,80.40
2022-11-16T14:20:55.994Z,80.22
2022-11-16T14:23:35.161Z,80.17
2022-11-16T14:26:01.907Z,80.01
2022-11-16T14:28:45.690Z,80.11
2022-11-16T14:31:12.049Z,80.08
2022-11-16T14:33:38.729Z,80.19
2022-11-16T14:36:07.927Z,80.25
2022-11-16T14:38:43.060Z,80.34
2022-11-16T14:41:20.483Z,80.23
2022-11-16T14:43:52.136Z,80.20
2022-11-16T14:46:27.315Z,80.29
2022-11-16T14:48:56.091Z,80.26
2022-11-16T14:51:29.546Z,80.06
2022-11-16T14:54:01.297Z,80.05
2022-11-16T14:56:27.759Z,79.91
2022-11-16T14:58:56.714Z,79.83
2022-11-16T15:01:27.684Z,79.66
2022-11-16T15:04:03.236Z,79.59
2022-11-16T15:06:42.979Z,79.50
2022-11-16T15:09:26.409Z,79.28
2022-11-16T15:12:12.593Z,79.34
2022-11-16T15:15:00.309Z,79.30
2022-11-16T15:17:31.801Z,79.20
2022-11-16T15:20:24.368Z,79.43
2022-11-16T15:22:53.267Z,79.50
2022-11-16T15:25:24.364Z,79.32
2022-11-16T15:27:51.575Z,79.50
2022-11-16T15:30:20.527Z,79.37
2022-11-16T15:32:49.923Z,79.21
2022-11-16T15:35:23.233Z,79.22
2022-11-16T15:38:16.208Z,79.26
2022-11-16T15:40:58.207Z,79.06
2022-11-16T15:43:29.848Z,78.98
2022-11-16T15:45:57.931Z,79.31
2022-11-16T15:48:27.074Z,79.45
2022-11-16T15:51:14.531Z,79.46
2022-11-16T15:53:44.683Z,79.45
2022-11-16T15:56:39.589Z,79.32
2022-11-16T15:59:12.776Z,79.66
2022-11-16T16:01:43.819Z,79.53
2022-11-16T16:04:16.048Z,79.41
2022-11-16T16:06:43.731Z,79.30
2022-11-16T16:09:38.240Z,79.48
2022-11-16T16:12:17.149Z,79.44
2022-11-16T16:14:44.507Z,79.17
2022-11-16T16:17:22.302Z,79.33
2022-11-16T16:19:58.499Z,79.57
2022-11-16T16:22:36.536Z,79.70
2022-11-16T16:25:06.966Z,79.58
2022-11-16T16:27:39.292Z,79.60
2022-11-16T16:30:06.891Z,79.53
2022-11-16T16:32:36.502Z,79.37
2022-11-16T16:35:08.046Z,79.58
2022-11-16T16:37:38.064Z,79.41
2022-11-16T16:40:05.449Z,79.54
2022-11-16T16:42:32.048Z,79.58
2022-11-16T16:44:59.847Z,79.44
2022-11-16T16:47:26.414Z,79.57
2022-11-16T16:49:53.173Z,79.74
2022-11-16T16:52:19.794Z,79.53
2022-11-16T16:54:46.472Z,79.67
2022-11-16T16:57:15.236Z,79.64
2022-11-16T16:59:44.629Z,79.75
2022-11-16T17:02:12.163Z,79.69
2022-11-16T17:04:40.121Z,79.75
2022-11-16T17:07:07.058Z,79.83
2022-11-16T17:09:33.878Z,79.79
2022-11-16T17:12:00.794Z,79.86
2022-11-16T17:14:27.503Z,79.77
2022-11-16T17:16:54.704Z,79.87
2022-11-16T17:19:21.374Z,80.02
2022-11-16T17:21:48.316Z,79.93
2022-11-16T17:24:14.780Z,79.90
2022-11-16T17:26:41.527Z,79.95
2022-11-16T17:29:08.306Z,79.79
2022-11-16T17:31:35.681Z,79.65
2022-11-16T17:34:02.462Z,79.66
2022-11-16T17:36:29.132Z,79.65
2022-11-16T17:38:56.038Z,79.73
2022-11-16T17:41:22.647Z,79.59
2022-11-16T17:43:52.413Z,79.67
2022-11-16T17:46:21.410Z,79.55
2022-11-16T17:48:48.355Z,79.48
2022-11-16T17:51:20.607Z,79.48
2022-11-16T17:53:49.157Z,79.44
2022-11-16T17:56:21.902Z,79.17
2022-11-16T17:58:52.344Z,79.19
2022-11-16T18:01:19.112Z,79.35
2022-11-16T18:03:45.863Z,79.02
2022-11-16T18:06:20.646Z,78.91
2022-11-16T18:08:48.269Z,78.91
2022-11-16T18:11:23.676Z,78.86
2022-11-16T18:14:00.685Z,78.47
2022-11-16T18:16:30.973Z,78.73
2022-11-16T18:19:05.441Z,78.46
2022-11-16T18:21:39.037Z,78.57
2022-11-16T18:24:05.921Z,78.73
2022-11-16T18:26:32.842Z,78.69
2022-11-16T18:28:59.482Z,78.40
2022-11-16T18:31:26.219Z,78.40
2022-11-16T18:33:53.010Z,78.24
2022-11-16T18:36:21.109Z,78.34
2022-11-16T18:38:48.297Z,78.56
2022-11-16T18:41:19.302Z,78.64
2022-11-16T18:43:54.178Z,78.57
2022-11-16T18:46:23.561Z,78.61
2022-11-16T18:48:50.323Z,78.38
2022-11-16T18:51:17.930Z,78.19
2022-11-16T18:53:45.127Z,78.15
2022-11-16T18:56:11.865Z,77.92
2022-11-16T18:58:54.872Z,77.92
2022-11-16T19:01:24.183Z,78.02
2022-11-16T19:03:52.594Z,78.04
2022-11-16T19:06:19.508Z,77.89
2022-11-16T19:08:53.740Z,78.01
2022-11-16T19:11:23.306Z,78.01
2022-11-16T19:14:00.113Z,77.91
2022-11-16T19:16:26.983Z,77.92
2022-11-16T19:18:53.655Z,77.79
2022-11-16T19:21:23.837Z,77.74
2022-11-16T19:23:55.031Z,77.75
2022-11-16T19:26:24.970Z,77.92
2022-11-16T19:28:52.438Z,77.79
2022-11-16T19:31:20.897Z,77.84
2022-11-16T19:33:48.395Z,77.77
2022-11-16T19:36:17.411Z,77.88
2022-11-16T19:38:54.107Z,77.78
2022-11-16T19:41:22.812Z,77.87
2022-11-16T19:43:52.019Z,77.92
2022-11-16T19:46:20.951Z,77.84
2022-11-16T19:48:48.790Z,77.41
2022-11-16T19:51:18.404Z,77.47
2022-11-16T19:53:45.196Z,77.65
2022-11-16T19:56:14.661Z,77.86
2022-11-16T19:58:42.468Z,77.49
2022-11-16T20:01:27.016Z,77.60
2022-11-16T20:03:56.387Z,77.52
2022-11-16T20:06:28.654Z,77.55
2022-11-16T20:09:01.603Z,77.68
2022-11-16T20:11:33.686Z,77.66
2022-11-16T20:14:05.739Z,77.61
2022-11-16T20:16:39.073Z,77.71
2022-11-16T20:19:08.008Z,77.71
2022-11-16T20:21:37.194Z,77.69
2022-11-16T20:24:06.754Z,77.78
2022-11-16T20:26:36.267Z,77.98
2022-11-16T20:29:03.264Z,78.19
2022-11-16T20:31:32.049Z,78.10
2022-11-16T20:34:04.620Z,77.92
2022-11-16T20:36:32.537Z,77.83
2022-11-16T20:39:00.061Z,77.87
2022-11-16T20:41:29.400Z,77.96
2022-11-16T20:44:00.799Z,77.77
2022-11-16T20:46:30.094Z,77.89
2022-11-16T20:48:58.848Z,77.95
2022-11-16T20:51:25.953Z,77.80
2022-11-16T20:53:52.556Z,77.89
2022-11-16T20:56:20.128Z,77.81
2022-11-16T20:58:47.856Z,77.71
2022-11-16T21:01:20.687Z,77.73
2022-11-16T21:03:47.391Z,77.88
2022-11-16T21:06:14.619Z,77.60
2022-11-16T21:08:41.385Z,77.74
2022-11-16T21:11:16.983Z,77.82
2022-11-16T21:14:06.577Z,77.57
2022-11-16T21:16:34.095Z,77.50
2022-11-16T21:19:01.380Z,77.52
2022-11-16T21:21:28.485Z,77.59
2022-11-16T21:23:55.141Z,77.88
2022-11-16T21:26:30.140Z,77.89
2022-11-16T21:28:58.590Z,77.88
2022-11-16T21:31:27.579Z,77.71
2022-11-16T21:33:55.446Z,77.68
2022-11-16T21:36:24.593Z,77.85
2022-11-16T21:38:52.720Z,77.65
2022-11-16T21:41:22.255Z,77.61
2022-11-16T21:43:51.763Z,77.63
2022-11-16T21:46:25.968Z,77.51
2022-11-16T21:48:54.786Z,77.47
2022-11-16T21:51:24.196Z,77.69
2022-11-16T21:53:51.502Z,77.72
2022-11-16T21:56:21.137Z,77.57
2022-11-16T21:58:49.263Z,77.67
2022-11-16T22:01:16.362Z,77.57
2022-11-16T22:03:44.129Z,77.12
2022-11-16T22:06:34.517Z,77.18
2022-11-16T22:09:01.975Z,77.29
2022-11-16T22:11:28.405Z,77.44
2022-11-16T22:13:55.060Z,77.05
2022-11-16T22:16:22.500Z,77.35
2022-11-16T22:18:49.120Z,77.18
2022-11-16T22:21:15.878Z,77.00
2022-11-16T22:23:42.664Z,76.80
2022-11-16T22:26:11.726Z,76.89
2022-11-16T22:28:38.987Z,76.72
2022-11-16T22:31:09.278Z,76.96
2022-11-16T22:33:36.380Z,76.99
2022-11-16T22:36:04.164Z,76.72
2022-11-16T22:38:31.040Z,76.61
2022-11-16T22:40:57.728Z,76.62
2022-11-16T22:43:27.286Z,76.27
2022-11-16T22:46:01.684Z,76.12
2022-11-16T22:48:33.414Z,76.08
2022-11-16T22:51:05.336Z,75.99
2022-11-16T22:53:32.372Z,76.01
2022-11-16T22:56:04.220Z,75.86
2022-11-16T22:58:30.938Z,75.99
2022-11-16T23:00:57.450Z,75.93
2022-11-16T23:03:23.955Z,75.95
2022-11-16T23:05:50.571Z,75.76
2022-11-16T23:08:17.084Z,75.27
2022-11-16T23:11:02.393Z,75.38
2022-11-16T23:13:47.950Z,75.55
2022-11-16T23:16:14.404Z,75.44
2022-11-16T23:18:40.979Z,75.72
2022-11-16T23:21:27.361Z,75.43
2022-11-16T23:24:12.842Z,75.34
2022-11-16T23:26:58.313Z,75.40
2022-11-16T23:29:25.293Z,75.29
2022-11-16T23:31:51.761Z,75.09
2022-11-16T23:34:19.503Z,75.08
2022-11-16T23:36:46.105Z,75.15
2022-11-16T23:39:12.524Z,75.16
2022-11-16T23:41:57.545Z,74.82
2022-11-16T23:44:24.212Z,74.18
2022-11-16T23:46:50.614Z,74.24
2022-11-16T23:49:17.177Z,74.41
2022-11-16T23:51:43.936Z,74.22
2022-11-16T23:54:10.434Z,74.30
2022-11-16T23:56:37.234Z,74.21
2022-11-16T23:59:03.880Z,74.31
